createdAt,value
2019-04-20T00:00:49.156Z,4.83
2019-04-20T00:03:15.781Z,4.83
2019-04-20T00:05:43.506Z,4.50
2019-04-20T00:08:16.708Z,4.60
2019-04-20T00:10:49.278Z,5.00
2019-04-20T00:13:20.543Z,4.70
2019-04-20T00:15:38.953Z,4.67
2019-04-20T00:18:08.248Z,4.87
2019-04-20T00:20:38.498Z,5.00
2019-04-20T00:23:14.593Z,4.50
2019-04-20T00:26:07.704Z,4.80
2019-04-20T00:28:47.252Z,4.90
2019-04-20T00:31:13.786Z,4.73
2019-04-20T00:33:37.361Z,5.07
2019-04-20T00:35:52.829Z,5.13
2019-04-20T00:38:21.526Z,5.60
2019-04-20T00:40:56.230Z,4.60
2019-04-20T00:43:22.080Z,5.90
2019-04-20T00:45:53.707Z,5.23
2019-04-20T00:48:31.491Z,4.73
2019-04-20T00:50:59.279Z,5.20
2019-04-20T00:53:23.882Z,5.17
2019-04-20T00:55:44.426Z,5.40
2019-04-20T00:58:20.096Z,6.00
2019-04-20T01:01:04.248Z,6.20
2019-04-20T01:03:26.686Z,5.50
2019-04-20T01:06:00.803Z,5.13
2019-04-20T01:08:17.092Z,5.50
2019-04-20T01:10:50.181Z,5.10
2019-04-20T01:13:19.824Z,5.30
2019-04-20T01:15:52.954Z,5.20
2019-04-20T01:18:13.911Z,4.60
2019-04-20T01:20:43.081Z,4.80
2019-04-20T01:23:15.282Z,4.67
2019-04-20T01:25:43.633Z,4.80
2019-04-20T01:28:28.738Z,4.40
2019-04-20T01:30:43.119Z,4.63
2019-04-20T01:33:21.338Z,4.97
2019-04-20T01:35:51.580Z,4.63
2019-04-20T01:38:22.408Z,3.90
2019-04-20T01:40:33.729Z,4.90
2019-04-20T01:43:01.601Z,5.00
2019-04-20T01:45:34.313Z,4.23
2019-04-20T01:48:00.932Z,5.20
2019-04-20T01:50:30.060Z,5.03
2019-04-20T01:53:08.282Z,5.40
2019-04-20T01:55:43.946Z,5.67
2019-04-20T01:58:37.821Z,5.00
2019-04-20T02:00:46.997Z,5.37
2019-04-20T02:03:38.609Z,5.80
2019-04-20T02:06:15.113Z,5.17
2019-04-20T02:08:40.053Z,5.00
2019-04-20T02:11:09.416Z,5.93
2019-04-20T02:13:46.691Z,5.13
2019-04-20T02:16:15.815Z,4.70
2019-04-20T02:18:44.140Z,5.90
2019-04-20T02:21:22.415Z,6.37
2019-04-20T02:23:40.783Z,5.40
2019-04-20T02:26:02.901Z,5.60
2019-04-20T02:28:57.152Z,6.37
2019-04-20T02:31:52.113Z,5.80
2019-04-20T02:34:24.079Z,5.80
2019-04-20T02:39:37.571Z,6.03
2019-04-20T02:42:07.957Z,6.00
2019-04-20T02:44:30.515Z,5.67
2019-04-20T02:54:26.021Z,6.47
2019-04-20T02:56:58.818Z,5.83
2019-04-20T03:01:40.745Z,6.47
2019-04-20T03:03:56.017Z,6.53
2019-04-20T03:06:30.443Z,6.03
2019-04-20T03:09:09.146Z,7.00
2019-04-20T03:11:49.910Z,7.30
2019-04-20T03:14:03.706Z,6.57
2019-04-20T03:16:31.843Z,6.90
2019-04-20T03:19:03.069Z,6.47
2019-04-20T03:21:37.785Z,6.77
2019-04-20T03:24:15.887Z,6.87
2019-04-20T03:26:40.177Z,6.90
2019-04-20T03:29:15.847Z,7.40
2019-04-20T03:32:26.875Z,6.70
2019-04-20T03:37:01.987Z,7.33
2019-04-20T03:39:25.922Z,6.67
2019-04-20T03:41:36.710Z,7.43
2019-04-20T03:44:04.079Z,8.17
2019-04-20T03:46:36.683Z,7.57
2019-04-20T03:49:16.933Z,6.67
2019-04-20T03:51:47.250Z,6.90
2019-04-20T03:54:25.150Z,6.70
2019-04-20T03:57:02.055Z,6.80
2019-04-20T03:59:29.862Z,7.53
2019-04-20T04:02:32.256Z,7.33
2019-04-20T04:05:06.180Z,6.73
2019-04-20T04:07:26.865Z,7.43
2019-04-20T04:10:02.708Z,6.70
2019-04-20T04:12:37.130Z,6.53
2019-04-20T04:15:02.272Z,7.17
2019-04-20T04:17:34.966Z,6.47
2019-04-20T04:20:05.037Z,7.00
2019-04-20T04:22:46.229Z,6.40
2019-04-20T04:25:10.198Z,7.50
2019-04-20T04:27:40.650Z,7.80
2019-04-20T04:30:13.372Z,6.60
2019-04-20T04:33:08.603Z,5.80
2019-04-20T04:35:05.716Z,5.93
2019-04-20T04:37:44.525Z,7.23
2019-04-20T04:40:23.585Z,5.93
2019-04-20T04:42:42.293Z,5.93
2019-04-20T04:44:56.540Z,6.33
2019-04-20T04:47:18.165Z,6.77
2019-04-20T04:49:55.222Z,5.70
2019-04-20T04:52:19.073Z,6.93
2019-04-20T04:54:53.321Z,7.23
2019-04-20T04:57:13.685Z,7.60
2019-04-20T04:59:42.449Z,6.60
2019-04-20T05:02:09.794Z,6.50
2019-04-20T05:05:10.116Z,6.40
2019-04-20T05:07:43.763Z,7.13
2019-04-20T05:10:01.371Z,7.10
2019-04-20T05:12:31.439Z,7.47
2019-04-20T05:15:06.112Z,6.73
2019-04-20T05:17:53.217Z,6.63
2019-04-20T05:20:13.509Z,6.97
2019-04-20T05:22:46.873Z,6.13
2019-04-20T05:25:31.060Z,6.90
2019-04-20T05:28:04.127Z,6.57
2019-04-20T05:30:13.922Z,6.40
2019-04-20T05:32:52.469Z,6.50
2019-04-20T05:35:31.116Z,6.30
2019-04-20T05:38:07.108Z,5.83
2019-04-20T05:40:35.527Z,6.70
2019-04-20T05:42:59.446Z,7.30
2019-04-20T05:45:24.870Z,6.40
2019-04-20T05:47:56.049Z,6.07
2019-04-20T05:50:28.948Z,6.30
2019-04-20T05:53:02.737Z,7.27
2019-04-20T05:55:25.042Z,6.07
2019-04-20T05:57:56.778Z,6.13
2019-04-20T06:00:26.746Z,6.27
2019-04-20T06:02:54.017Z,6.13
2019-04-20T06:05:31.611Z,6.30
2019-04-20T06:07:54.892Z,6.67
2019-04-20T06:10:26.421Z,6.23
2019-04-20T06:12:51.730Z,6.37
2019-04-20T06:15:18.430Z,6.80
2019-04-20T06:18:06.294Z,6.57
2019-04-20T06:20:41.167Z,6.53
2019-04-20T06:23:24.594Z,7.17
2019-04-20T06:26:15.901Z,6.10
2019-04-20T06:28:24.592Z,7.47
2019-04-20T06:30:51.175Z,6.60
2019-04-20T06:34:00.282Z,6.97
2019-04-20T06:36:22.144Z,6.43
2019-04-20T06:41:25.033Z,7.20
2019-04-20T06:43:44.797Z,6.97
2019-04-20T06:46:09.912Z,7.20
2019-04-20T06:48:44.398Z,8.20
2019-04-20T06:51:09.195Z,6.83
2019-04-20T06:53:52.598Z,7.20
2019-04-20T06:56:34.019Z,6.67
2019-04-20T06:59:03.731Z,6.80
2019-04-20T07:01:38.660Z,6.40
2019-04-20T07:06:46.805Z,6.90
2019-04-20T07:09:00.852Z,7.57
2019-04-20T07:11:25.026Z,8.03
2019-04-20T07:13:44.463Z,7.27
2019-04-20T07:16:36.326Z,6.63
2019-04-20T07:19:24.096Z,7.03
2019-04-20T07:22:25.133Z,7.30
2019-04-20T07:24:46.279Z,6.30
2019-04-20T07:27:12.208Z,5.77
2019-04-20T07:29:47.487Z,5.97
2019-04-20T07:32:07.586Z,5.80
2019-04-20T07:34:44.800Z,6.13
2019-04-20T07:37:40.763Z,6.30
2019-04-20T07:39:46.612Z,6.10
2019-04-20T07:42:20.944Z,5.90
2019-04-20T07:44:41.374Z,6.37
2019-04-20T07:47:14.265Z,6.70
2019-04-20T07:49:37.327Z,6.37
2019-04-20T07:51:46.087Z,5.90
2019-04-20T07:54:35.781Z,5.40
2019-04-20T07:56:58.554Z,6.47
2019-04-20T07:59:23.180Z,6.03
2019-04-20T08:02:11.536Z,5.60
2019-04-20T08:04:47.605Z,5.60
2019-04-20T08:07:04.238Z,6.63
2019-04-20T08:09:39.956Z,6.10
2019-04-20T08:12:29.309Z,6.30
2019-04-20T08:15:00.829Z,5.83
2019-04-20T08:17:42.275Z,6.20
2019-04-20T08:19:46.978Z,6.53
2019-04-20T08:22:19.743Z,6.23
2019-04-20T08:24:45.613Z,5.53
2019-04-20T08:27:07.587Z,5.27
2019-04-20T08:29:48.400Z,5.80
2019-04-20T08:32:41.471Z,5.40
2019-04-20T08:35:14.162Z,6.30
2019-04-20T08:37:48.967Z,6.53
2019-04-20T08:40:11.967Z,5.60
2019-04-20T08:42:49.957Z,5.70
2019-04-20T08:45:19.345Z,5.70
2019-04-20T08:47:44.517Z,5.37
2019-04-20T08:50:17.179Z,5.80
2019-04-20T08:53:06.935Z,5.70
2019-04-20T08:55:07.772Z,6.90
2019-04-20T08:57:18.461Z,6.20
2019-04-20T08:59:48.235Z,6.53
2019-04-20T09:02:17.435Z,5.97
2019-04-20T09:04:53.220Z,5.60
2019-04-20T09:07:19.647Z,5.40
2019-04-20T09:10:12.313Z,5.97
2019-04-20T09:12:26.793Z,5.23
2019-04-20T09:14:41.735Z,4.70
2019-04-20T09:17:25.306Z,6.30
2019-04-20T09:19:57.847Z,5.80
2019-04-20T09:22:40.987Z,5.00
2019-04-20T09:25:36.461Z,5.17
2019-04-20T09:27:34.775Z,6.20
2019-04-20T09:30:09.063Z,5.40
2019-04-20T09:32:48.860Z,5.20
2019-04-20T09:35:25.453Z,5.47
2019-04-20T09:37:53.176Z,5.23
2019-04-20T09:40:20.783Z,5.33
2019-04-20T09:42:44.725Z,4.80
2019-04-20T09:45:25.956Z,5.50
2019-04-20T09:47:47.806Z,4.93
2019-04-20T09:50:27.869Z,5.70
2019-04-20T09:52:59.129Z,5.10
2019-04-20T09:55:21.648Z,5.47
2019-04-20T09:57:57.417Z,5.30
2019-04-20T10:00:23.626Z,5.57
2019-04-20T10:02:39.258Z,5.00
2019-04-20T10:05:07.412Z,4.40
2019-04-20T10:07:37.267Z,5.13
2019-04-20T10:10:15.594Z,5.30
2019-04-20T10:12:33.559Z,6.03
2019-04-20T10:15:06.527Z,4.70
2019-04-20T10:17:31.780Z,6.27
2019-04-20T10:20:03.435Z,4.93
2019-04-20T10:22:28.697Z,5.27
2019-04-20T10:24:57.155Z,5.40
2019-04-20T10:27:24.578Z,4.87
2019-04-20T10:29:51.818Z,5.23
2019-04-20T10:32:19.719Z,5.23
2019-04-20T10:34:48.443Z,5.00
2019-04-20T10:37:17.638Z,5.70
2019-04-20T10:39:44.905Z,5.30
2019-04-20T10:42:12.325Z,5.40
2019-04-20T10:44:40.969Z,4.70
2019-04-20T10:47:09.178Z,5.43
2019-04-20T10:49:38.283Z,5.23
2019-04-20T10:52:05.646Z,5.57
2019-04-20T10:54:34.296Z,5.40
2019-04-20T10:57:01.954Z,5.90
2019-04-20T10:59:29.750Z,5.30
2019-04-20T11:01:58.123Z,6.00
2019-04-20T11:04:26.316Z,4.80
2019-04-20T11:06:54.493Z,5.20
2019-04-20T11:09:22.704Z,4.83
2019-04-20T11:11:50.306Z,5.30
2019-04-20T11:14:24.628Z,5.20
2019-04-20T11:16:46.714Z,4.87
2019-04-20T11:19:13.995Z,4.63
2019-04-20T11:21:41.251Z,4.57
2019-04-20T11:24:09.972Z,5.60
2019-04-20T11:26:39.957Z,5.17
2019-04-20T11:29:06.527Z,5.43
2019-04-20T11:31:40.932Z,4.83
2019-04-20T11:34:03.920Z,5.43
2019-04-20T11:36:31.302Z,5.07
2019-04-20T11:38:58.788Z,5.60
2019-04-20T11:41:30.475Z,5.13
2019-04-20T11:43:55.762Z,5.30
2019-04-20T11:46:23.046Z,5.20
2019-04-20T11:48:51.833Z,5.83
2019-04-20T11:51:19.271Z,5.03
2019-04-20T11:53:48.075Z,5.13
2019-04-20T11:56:22.465Z,5.33
2019-04-20T11:58:44.886Z,6.30
2019-04-20T12:01:37.020Z,4.37
2019-04-20T12:04:11.326Z,4.63
2019-04-20T12:06:28.891Z,5.27
2019-04-20T12:08:56.990Z,4.93
2019-04-20T12:11:34.850Z,5.47
2019-04-20T12:13:54.516Z,4.80
2019-04-20T12:16:21.853Z,5.80
2019-04-20T12:18:50.204Z,4.57
2019-04-20T12:21:18.881Z,6.03
2019-04-20T12:23:46.475Z,5.30
2019-04-20T12:26:14.815Z,5.03
2019-04-20T12:28:43.384Z,5.43
2019-04-20T12:31:15.389Z,5.70
2019-04-20T12:33:40.143Z,5.20
2019-04-20T12:36:10.128Z,5.97
2019-04-20T12:38:37.570Z,5.33
2019-04-20T12:41:06.607Z,5.97
2019-04-20T12:43:33.981Z,5.90
2019-04-20T12:46:02.179Z,6.17
2019-04-20T12:48:29.626Z,6.43
2019-04-20T12:50:57.482Z,6.43
2019-04-20T12:53:26.418Z,6.80
2019-04-20T12:55:54.751Z,5.47
2019-04-20T12:58:22.833Z,6.40
2019-04-20T13:00:52.148Z,5.90
2019-04-20T13:03:19.623Z,5.93
2019-04-20T13:05:47.862Z,6.67
2019-04-20T13:08:21.768Z,6.20
2019-04-20T13:10:46.582Z,5.97
2019-04-20T13:13:18.787Z,5.90
2019-04-20T13:15:47.874Z,6.47
2019-04-20T13:18:21.171Z,6.27
2019-04-20T13:20:48.529Z,7.37
2019-04-20T13:23:17.124Z,6.23
2019-04-20T13:25:44.518Z,6.40
2019-04-20T13:28:12.813Z,6.37
2019-04-20T13:30:40.177Z,5.60
2019-04-20T13:33:07.993Z,6.40
2019-04-20T13:35:36.368Z,6.23
2019-04-20T13:38:04.591Z,5.83
2019-04-20T13:40:31.883Z,5.40
2019-04-20T13:42:59.581Z,5.47
2019-04-20T13:45:26.873Z,5.70
2019-04-20T13:47:55.087Z,5.77
2019-04-20T13:50:22.429Z,5.47
2019-04-20T13:52:49.778Z,5.57
2019-04-20T13:55:19.327Z,5.80
2019-04-20T13:57:55.882Z,5.63
2019-04-20T14:00:54.060Z,5.30
2019-04-20T14:03:23.203Z,5.40
2019-04-20T14:05:50.849Z,5.50
2019-04-20T14:08:21.068Z,5.70
2019-04-20T14:10:49.264Z,5.30
2019-04-20T14:13:19.219Z,5.37
2019-04-20T14:15:45.567Z,5.50
2019-04-20T14:18:13.307Z,5.70
2019-04-20T14:20:40.657Z,5.70
2019-04-20T14:23:09.368Z,5.37
2019-04-20T14:25:36.810Z,5.50
2019-04-20T14:28:04.947Z,5.77
2019-04-20T14:30:33.059Z,6.10
2019-04-20T14:33:01.034Z,5.53
2019-04-20T14:35:29.192Z,5.90
2019-04-20T14:37:57.574Z,5.50
2019-04-20T14:40:26.125Z,5.93
2019-04-20T14:42:55.532Z,6.60
2019-04-20T14:45:22.814Z,5.10
2019-04-20T14:47:51.916Z,4.63
2019-04-20T14:50:20.068Z,5.80
2019-04-20T14:52:47.423Z,5.10
2019-04-20T14:55:17.202Z,5.40
2019-04-20T14:57:43.710Z,5.93
2019-04-20T15:00:19.439Z,5.20
2019-04-20T15:02:47.944Z,5.30
2019-04-20T15:05:15.267Z,5.50
2019-04-20T15:07:42.686Z,6.27
2019-04-20T15:10:10.962Z,5.80
2019-04-20T15:12:48.331Z,4.87
2019-04-20T15:15:08.427Z,5.43
2019-04-20T15:17:37.583Z,4.87
2019-04-20T15:20:16.928Z,5.40
2019-04-20T15:22:49.843Z,5.27
2019-04-20T15:25:17.808Z,5.30
2019-04-20T15:27:46.354Z,5.00
2019-04-20T15:30:14.269Z,4.90
2019-04-20T15:32:42.998Z,5.60
2019-04-20T15:35:11.121Z,4.27
2019-04-20T15:37:39.539Z,5.10
2019-04-20T15:40:06.981Z,5.10
2019-04-20T15:42:35.200Z,4.67
2019-04-20T15:45:05.190Z,5.20
2019-04-20T15:47:34.094Z,5.40
2019-04-20T15:50:02.278Z,4.63
2019-04-20T15:52:36.859Z,4.90
2019-04-20T15:55:03.085Z,4.63
2019-04-20T15:57:30.788Z,5.53
2019-04-20T15:59:58.148Z,5.30
2019-04-20T16:02:27.333Z,4.50
2019-04-20T16:04:56.539Z,4.77
2019-04-20T16:07:23.841Z,4.30
2019-04-20T16:09:51.649Z,4.90
2019-04-20T16:12:19.032Z,5.47
2019-04-20T16:14:46.273Z,5.60
2019-04-20T16:17:15.073Z,5.00
2019-04-20T16:19:50.962Z,4.87
2019-04-20T16:22:12.132Z,5.17
2019-04-20T16:24:46.926Z,5.13
2019-04-20T16:27:15.835Z,4.90
2019-04-20T16:29:43.935Z,5.27
2019-04-20T16:32:12.220Z,4.40
2019-04-20T16:34:40.338Z,5.13
2019-04-20T16:37:08.628Z,4.73
2019-04-20T16:39:36.571Z,4.97
2019-04-20T16:42:04.481Z,4.70
2019-04-20T16:44:31.826Z,5.43
2019-04-20T16:47:00.505Z,4.83
2019-04-20T16:49:28.783Z,5.17
2019-04-20T16:51:57.032Z,4.80
2019-04-20T16:54:25.815Z,4.80
2019-04-20T16:56:53.332Z,5.07
2019-04-20T16:59:21.218Z,4.70
2019-04-20T17:01:50.633Z,4.57
2019-04-20T17:04:22.042Z,3.90
2019-04-20T17:06:49.721Z,4.50
2019-04-20T17:09:17.895Z,4.10
2019-04-20T17:11:45.727Z,4.27
2019-04-20T17:14:13.066Z,5.27
2019-04-20T17:16:41.646Z,4.20
2019-04-20T17:19:09.990Z,4.50
2019-04-20T17:21:37.389Z,4.43
2019-04-20T17:24:04.979Z,4.27
2019-04-20T17:26:36.920Z,4.80
2019-04-20T17:29:06.038Z,4.40
2019-04-20T17:31:40.928Z,3.90
2019-04-20T17:34:27.097Z,4.43
2019-04-20T17:36:40.190Z,4.07
2019-04-20T17:39:11.516Z,4.40
2019-04-20T17:41:57.666Z,4.23
2019-04-20T17:44:20.813Z,4.00
2019-04-20T17:46:45.049Z,4.57
2019-04-20T17:49:21.924Z,4.23
2019-04-20T17:51:53.257Z,4.40
2019-04-20T17:54:12.973Z,4.10
2019-04-20T17:56:42.382Z,4.70
2019-04-20T17:59:10.411Z,4.03
2019-04-20T18:02:00.403Z,4.00
2019-04-20T18:04:44.329Z,4.50
2019-04-20T18:06:55.255Z,4.17
2019-04-20T18:09:35.912Z,4.63
2019-04-20T18:11:46.641Z,3.80
2019-04-20T18:14:28.883Z,4.00
2019-04-20T18:17:05.215Z,4.90
2019-04-20T18:19:19.691Z,4.50
2019-04-20T18:21:47.720Z,5.20
2019-04-20T18:24:38.756Z,4.50
2019-04-20T18:27:03.107Z,4.70
2019-04-20T18:29:32.313Z,4.50
2019-04-20T18:31:43.774Z,4.50
2019-04-20T18:34:17.969Z,5.10
2019-04-20T18:36:44.615Z,4.50
2019-04-20T18:39:13.608Z,4.23
2019-04-20T18:41:46.658Z,4.53
2019-04-20T18:44:08.990Z,4.90
2019-04-20T18:47:03.519Z,4.60
2019-04-20T18:49:19.910Z,4.70
2019-04-20T18:51:35.705Z,4.30
2019-04-20T18:54:10.092Z,4.70
2019-04-20T18:56:38.294Z,5.90
2019-04-20T18:59:01.124Z,4.17
2019-04-20T19:01:32.073Z,4.90
2019-04-20T19:03:57.498Z,4.77
2019-04-20T19:06:25.587Z,5.63
2019-04-20T19:08:54.229Z,5.10
2019-04-20T19:11:25.021Z,5.77
2019-04-20T19:14:16.422Z,4.97
2019-04-20T19:16:52.751Z,4.77
2019-04-20T19:19:21.791Z,4.90
2019-04-20T19:21:40.280Z,5.33
2019-04-20T19:24:12.564Z,4.33
2019-04-20T19:26:38.499Z,5.37
2019-04-20T19:29:15.661Z,5.00
2019-04-20T19:31:50.936Z,5.53
2019-04-20T19:34:22.735Z,5.60
2019-04-20T19:36:38.978Z,4.90
2019-04-20T19:39:19.350Z,5.33
2019-04-20T19:41:41.772Z,5.20
2019-04-20T19:44:13.195Z,4.97
2019-04-20T19:46:50.537Z,5.27
2019-04-20T19:49:09.697Z,5.37
2019-04-20T19:51:47.962Z,5.10
2019-04-20T19:54:22.720Z,6.03
2019-04-20T19:56:42.639Z,5.70
2019-04-20T19:59:09.556Z,6.03
2019-04-20T20:01:24.011Z,5.00
2019-04-20T20:03:57.996Z,4.73
2019-04-20T20:06:31.742Z,5.60
2019-04-20T20:08:56.151Z,5.20
2019-04-20T20:11:29.587Z,5.63
2019-04-20T20:13:53.085Z,5.60
2019-04-20T20:16:26.755Z,5.73
2019-04-20T20:18:55.892Z,5.40
2019-04-20T20:21:23.891Z,6.10
2019-04-20T20:23:43.789Z,5.70
2019-04-20T20:26:19.647Z,6.10
2019-04-20T20:28:47.653Z,4.90
2019-04-20T20:31:20.739Z,6.47
2019-04-20T20:33:54.183Z,5.40
2019-04-20T20:36:12.677Z,5.60
2019-04-20T20:38:42.305Z,4.90
2019-04-20T20:41:16.042Z,5.50
2019-04-20T20:43:51.070Z,6.60
2019-04-20T20:46:18.552Z,5.73
2019-04-20T20:48:57.110Z,6.13
2019-04-20T20:51:31.458Z,6.17
2019-04-20T20:53:48.431Z,6.37
2019-04-20T20:56:09.956Z,5.57
2019-04-20T20:58:44.702Z,6.43
2019-04-20T21:01:06.743Z,6.43
2019-04-20T21:03:31.252Z,5.73
2019-04-20T21:05:56.068Z,5.50
2019-04-20T21:08:23.885Z,6.27
2019-04-20T21:10:52.634Z,5.77
2019-04-20T21:13:21.391Z,7.23
2019-04-20T21:15:55.015Z,7.20
2019-04-20T21:18:36.811Z,6.10
2019-04-20T21:21:04.139Z,6.90
2019-04-20T21:23:30.591Z,6.73
2019-04-20T21:26:03.550Z,5.87
2019-04-20T21:28:31.077Z,6.73
2019-04-20T21:31:06.915Z,6.77
2019-04-20T21:33:30.263Z,5.87
2019-04-20T21:35:56.804Z,6.10
2019-04-20T21:38:24.956Z,6.57
2019-04-20T21:41:02.267Z,7.40
2019-04-20T21:43:27.853Z,6.73
2019-04-20T21:45:58.343Z,6.43
2019-04-20T21:48:40.689Z,6.90
2019-04-20T21:51:03.733Z,7.60
2019-04-20T21:53:24.299Z,6.10
2019-04-20T21:55:47.974Z,5.90
2019-04-20T21:58:20.592Z,6.47
2019-04-20T22:01:07.236Z,7.27
2019-04-20T22:03:22.648Z,8.20
2019-04-20T22:05:52.562Z,7.20
2019-04-20T22:08:20.050Z,6.43
2019-04-20T22:10:47.453Z,6.50
2019-04-20T22:13:19.377Z,6.77
2019-04-20T22:15:50.511Z,6.40
2019-04-20T22:18:18.002Z,6.80
2019-04-20T22:20:56.116Z,7.67
2019-04-20T22:23:21.577Z,6.57
2019-04-20T22:25:56.600Z,6.90
2019-04-20T22:28:08.784Z,7.77
2019-04-20T22:30:36.050Z,7.00
2019-04-20T22:33:08.134Z,8.00
2019-04-20T22:35:42.715Z,6.87
2019-04-20T22:38:10.110Z,7.47
2019-04-20T22:40:36.438Z,7.70
2019-04-20T22:43:04.274Z,7.40
2019-04-20T22:45:33.981Z,7.23
2019-04-20T22:48:06.738Z,6.90
2019-04-20T22:50:42.291Z,8.20
2019-04-20T22:53:18.091Z,7.17
2019-04-20T22:55:50.136Z,7.03
2019-04-20T22:58:03.525Z,7.40
2019-04-20T23:00:36.432Z,8.47
2019-04-20T23:02:54.702Z,7.40
2019-04-20T23:05:22.746Z,7.00
2019-04-20T23:07:50.563Z,7.70
2019-04-20T23:10:27.274Z,7.20
2019-04-20T23:12:51.388Z,7.40
2019-04-20T23:15:16.347Z,7.20
2019-04-20T23:17:46.835Z,7.17
2019-04-20T23:20:21.232Z,6.83
2019-04-20T23:22:45.665Z,7.63
2019-04-20T23:25:11.335Z,7.60
2019-04-20T23:27:40.075Z,7.93
2019-04-20T23:30:13.554Z,8.20
2019-04-20T23:32:37.826Z,8.23
2019-04-20T23:35:12.974Z,7.23
2019-04-20T23:37:36.874Z,8.40
2019-04-20T23:40:08.130Z,7.90
2019-04-20T23:42:40.151Z,6.97
2019-04-20T23:45:31.450Z,8.37
2019-04-20T23:48:01.317Z,8.10
2019-04-20T23:50:41.209Z,7.20
2019-04-20T23:53:13.921Z,7.17
2019-04-20T23:55:23.891Z,8.10
2019-04-20T23:57:59.083Z,7.80
